sensor_id;sensor_type;location;lat;lon;timestamp;P1;durP1;ratioP1;P2;durP2;ratioP2
54511;SDS011;40419;47.438;19.026;2024-02-23T00:01:48;3.75;;;0.93;;
54511;SDS011;40419;47.438;19.026;2024-02-23T00:04:14;2.80;;;1.38;;
54511;SDS011;40419;47.438;19.026;2024-02-23T00:06:44;2.55;;;1.55;;
54511;SDS011;40419;47.438;19.026;2024-02-23T00:09:11;2.70;;;1.35;;
54511;SDS011;40419;47.438;19.026;2024-02-23T00:11:40;1.85;;;1.20;;
54511;SDS011;40419;47.438;19.026;2024-02-23T00:14:12;2.60;;;1.25;;
54511;SDS011;40419;47.438;19.026;2024-02-23T00:16:40;1.00;;;0.70;;
54511;SDS011;40419;47.438;19.026;2024-02-23T00:19:09;2.15;;;1.27;;
54511;SDS011;40419;47.438;19.026;2024-02-23T00:21:36;2.72;;;1.35;;
54511;SDS011;40419;47.438;19.026;2024-02-23T00:24:05;1.40;;;1.10;;
54511;SDS011;40419;47.438;19.026;2024-02-23T00:26:31;4.50;;;1.33;;
54511;SDS011;40419;47.438;19.026;2024-02-23T00:28:58;2.42;;;1.20;;
54511;SDS011;40419;47.438;19.026;2024-02-23T00:31:24;3.20;;;1.48;;
54511;SDS011;40419;47.438;19.026;2024-02-23T00:33:54;2.63;;;1.27;;
54511;SDS011;40419;47.438;19.026;2024-02-23T00:36:19;1.13;;;0.95;;
54511;SDS011;40419;47.438;19.026;2024-02-23T00:38:45;1.02;;;0.65;;
54511;SDS011;40419;47.438;19.026;2024-02-23T00:41:10;3.55;;;1.30;;
54511;SDS011;40419;47.438;19.026;2024-02-23T00:43:39;1.23;;;0.82;;
54511;SDS011;40419;47.438;19.026;2024-02-23T00:46:04;2.55;;;1.17;;
54511;SDS011;40419;47.438;19.026;2024-02-23T00:48:32;1.48;;;0.98;;
54511;SDS011;40419;47.438;19.026;2024-02-23T00:51:01;1.52;;;0.93;;
54511;SDS011;40419;47.438;19.026;2024-02-23T00:53:30;2.97;;;1.65;;
54511;SDS011;40419;47.438;19.026;2024-02-23T00:55:55;1.92;;;1.58;;
54511;SDS011;40419;47.438;19.026;2024-02-23T00:58:21;2.05;;;1.35;;
54511;SDS011;40419;47.438;19.026;2024-02-23T01:00:46;2.22;;;1.23;;
54511;SDS011;40419;47.438;19.026;2024-02-23T01:03:12;2.65;;;1.48;;
54511;SDS011;40419;47.438;19.026;2024-02-23T01:05:37;2.38;;;1.23;;
54511;SDS011;40419;47.438;19.026;2024-02-23T01:08:03;2.65;;;1.15;;
54511;SDS011;40419;47.438;19.026;2024-02-23T01:10:28;2.85;;;1.67;;
54511;SDS011;40419;47.438;19.026;2024-02-23T01:12:54;2.17;;;1.10;;
54511;SDS011;40419;47.438;19.026;2024-02-23T01:15:19;1.60;;;1.00;;
54511;SDS011;40419;47.438;19.026;2024-02-23T01:17:44;1.08;;;0.90;;
54511;SDS011;40419;47.438;19.026;2024-02-23T01:20:10;1.77;;;1.23;;
54511;SDS011;40419;47.438;19.026;2024-02-23T01:22:36;3.47;;;1.70;;
54511;SDS011;40419;47.438;19.026;2024-02-23T01:25:01;2.88;;;1.67;;
54511;SDS011;40419;47.438;19.026;2024-02-23T01:27:29;2.28;;;1.42;;
54511;SDS011;40419;47.438;19.026;2024-02-23T01:29:55;3.63;;;1.58;;
54511;SDS011;40419;47.438;19.026;2024-02-23T01:32:20;2.08;;;1.35;;
54511;SDS011;40419;47.438;19.026;2024-02-23T01:34:52;3.05;;;1.83;;
54511;SDS011;40419;47.438;19.026;2024-02-23T01:37:18;1.73;;;1.50;;
54511;SDS011;40419;47.438;19.026;2024-02-23T01:39:46;2.50;;;1.45;;
54511;SDS011;40419;47.438;19.026;2024-02-23T01:42:14;3.67;;;1.42;;
54511;SDS011;40419;47.438;19.026;2024-02-23T01:44:42;2.95;;;1.40;;
54511;SDS011;40419;47.438;19.026;2024-02-23T01:47:10;3.60;;;1.67;;
54511;SDS011;40419;47.438;19.026;2024-02-23T01:49:36;2.72;;;1.60;;
54511;SDS011;40419;47.438;19.026;2024-02-23T01:52:01;3.00;;;1.52;;
54511;SDS011;40419;47.438;19.026;2024-02-23T01:54:27;2.72;;;2.05;;
54511;SDS011;40419;47.438;19.026;2024-02-23T01:56:56;1.65;;;1.23;;
54511;SDS011;40419;47.438;19.026;2024-02-23T01:59:24;2.10;;;1.08;;
54511;SDS011;40419;47.438;19.026;2024-02-23T02:01:50;4.25;;;2.05;;
54511;SDS011;40419;47.438;19.026;2024-02-23T02:04:16;2.80;;;1.58;;
54511;SDS011;40419;47.438;19.026;2024-02-23T02:06:41;3.28;;;1.23;;
54511;SDS011;40419;47.438;19.026;2024-02-23T02:09:09;2.28;;;1.30;;
54511;SDS011;40419;47.438;19.026;2024-02-23T02:11:34;3.42;;;1.70;;
54511;SDS011;40419;47.438;19.026;2024-02-23T02:14:04;2.92;;;1.63;;
54511;SDS011;40419;47.438;19.026;2024-02-23T02:16:32;3.20;;;1.20;;
54511;SDS011;40419;47.438;19.026;2024-02-23T02:19:00;3.58;;;1.60;;
54511;SDS011;40419;47.438;19.026;2024-02-23T02:21:28;2.05;;;1.40;;
54511;SDS011;40419;47.438;19.026;2024-02-23T02:23:53;6.30;;;1.50;;
54511;SDS011;40419;47.438;19.026;2024-02-23T02:26:21;2.47;;;1.58;;
54511;SDS011;40419;47.438;19.026;2024-02-23T02:28:49;2.97;;;1.67;;
54511;SDS011;40419;47.438;19.026;2024-02-23T02:31:17;2.90;;;1.60;;
54511;SDS011;40419;47.438;19.026;2024-02-23T02:33:43;2.28;;;1.58;;
54511;SDS011;40419;47.438;19.026;2024-02-23T02:36:08;2.97;;;1.20;;
54511;SDS011;40419;47.438;19.026;2024-02-23T02:38:34;4.10;;;1.55;;
54511;SDS011;40419;47.438;19.026;2024-02-23T02:40:59;3.03;;;1.35;;
54511;SDS011;40419;47.438;19.026;2024-02-23T02:43:30;2.80;;;1.95;;
54511;SDS011;40419;47.438;19.026;2024-02-23T02:45:58;4.47;;;1.48;;
54511;SDS011;40419;47.438;19.026;2024-02-23T02:48:24;2.25;;;1.42;;
54511;SDS011;40419;47.438;19.026;2024-02-23T02:50:52;2.40;;;1.38;;
54511;SDS011;40419;47.438;19.026;2024-02-23T02:53:22;5.93;;;1.73;;
54511;SDS011;40419;47.438;19.026;2024-02-23T02:55:50;3.35;;;1.35;;
54511;SDS011;40419;47.438;19.026;2024-02-23T02:58:15;1.95;;;1.25;;
54511;SDS011;40419;47.438;19.026;2024-02-23T03:00:45;9.48;;;1.83;;
54511;SDS011;40419;47.438;19.026;2024-02-23T03:03:11;2.30;;;1.30;;
54511;SDS011;40419;47.438;19.026;2024-02-23T03:05:37;6.43;;;1.17;;
54511;SDS011;40419;47.438;19.026;2024-02-23T03:08:03;3.03;;;1.30;;
54511;SDS011;40419;47.438;19.026;2024-02-23T03:10:30;1.65;;;1.42;;
54511;SDS011;40419;47.438;19.026;2024-02-23T03:12:59;2.28;;;1.48;;
54511;SDS011;40419;47.438;19.026;2024-02-23T03:15:26;1.83;;;1.20;;
54511;SDS011;40419;47.438;19.026;2024-02-23T03:17:57;3.35;;;1.70;;
54511;SDS011;40419;47.438;19.026;2024-02-23T03:20:22;2.85;;;1.35;;
54511;SDS011;40419;47.438;19.026;2024-02-23T03:22:50;5.63;;;1.33;;
54511;SDS011;40419;47.438;19.026;2024-02-23T03:25:18;5.43;;;1.90;;
54511;SDS011;40419;47.438;19.026;2024-02-23T03:27:45;2.95;;;1.55;;
54511;SDS011;40419;47.438;19.026;2024-02-23T03:30:11;3.05;;;1.40;;
54511;SDS011;40419;47.438;19.026;2024-02-23T03:32:36;3.28;;;1.60;;
54511;SDS011;40419;47.438;19.026;2024-02-23T03:35:03;3.55;;;1.80;;
54511;SDS011;40419;47.438;19.026;2024-02-23T03:37:29;4.30;;;2.03;;
54511;SDS011;40419;47.438;19.026;2024-02-23T03:39:54;3.58;;;1.85;;
54511;SDS011;40419;47.438;19.026;2024-02-23T03:42:22;1.92;;;1.33;;
54511;SDS011;40419;47.438;19.026;2024-02-23T03:44:47;3.00;;;1.70;;
54511;SDS011;40419;47.438;19.026;2024-02-23T03:47:15;2.20;;;1.17;;
54511;SDS011;40419;47.438;19.026;2024-02-23T03:49:45;3.25;;;1.85;;
54511;SDS011;40419;47.438;19.026;2024-02-23T03:52:11;3.58;;;2.20;;
54511;SDS011;40419;47.438;19.026;2024-02-23T03:54:39;2.83;;;1.42;;
54511;SDS011;40419;47.438;19.026;2024-02-23T03:57:04;2.63;;;1.58;;
54511;SDS011;40419;47.438;19.026;2024-02-23T03:59:32;3.05;;;1.67;;
54511;SDS011;40419;47.438;19.026;2024-02-23T04:01:57;4.22;;;1.80;;
54511;SDS011;40419;47.438;19.026;2024-02-23T04:04:23;6.57;;;1.35;;
54511;SDS011;40419;47.438;19.026;2024-02-23T04:06:53;7.13;;;1.52;;
54511;SDS011;40419;47.438;19.026;2024-02-23T04:09:23;2.47;;;1.63;;
54511;SDS011;40419;47.438;19.026;2024-02-23T04:11:48;2.65;;;1.67;;
54511;SDS011;40419;47.438;19.026;2024-02-23T04:14:14;1.98;;;1.50;;
54511;SDS011;40419;47.438;19.026;2024-02-23T04:16:39;2.55;;;1.42;;
54511;SDS011;40419;47.438;19.026;2024-02-23T04:19:10;4.68;;;1.88;;
54511;SDS011;40419;47.438;19.026;2024-02-23T04:21:38;1.92;;;1.40;;
54511;SDS011;40419;47.438;19.026;2024-02-23T04:24:06;2.78;;;1.77;;
54511;SDS011;40419;47.438;19.026;2024-02-23T04:26:32;4.93;;;1.95;;
54511;SDS011;40419;47.438;19.026;2024-02-23T04:28:57;2.10;;;1.25;;
54511;SDS011;40419;47.438;19.026;2024-02-23T04:31:25;2.92;;;1.42;;
54511;SDS011;40419;47.438;19.026;2024-02-23T04:33:50;3.58;;;1.80;;
54511;SDS011;40419;47.438;19.026;2024-02-23T04:36:19;4.95;;;2.03;;
54511;SDS011;40419;47.438;19.026;2024-02-23T04:38:45;2.70;;;1.48;;
54511;SDS011;40419;47.438;19.026;2024-02-23T04:41:12;1.73;;;1.27;;
54511;SDS011;40419;47.438;19.026;2024-02-23T04:43:38;2.22;;;1.67;;
54511;SDS011;40419;47.438;19.026;2024-02-23T04:46:05;3.30;;;1.30;;
54511;SDS011;40419;47.438;19.026;2024-02-23T04:48:31;2.70;;;1.40;;
54511;SDS011;40419;47.438;19.026;2024-02-23T04:50:58;3.42;;;1.45;;
54511;SDS011;40419;47.438;19.026;2024-02-23T04:53:27;2.90;;;1.58;;
54511;SDS011;40419;47.438;19.026;2024-02-23T04:55:54;2.72;;;1.33;;
54511;SDS011;40419;47.438;19.026;2024-02-23T04:58:20;2.00;;;1.10;;
54511;SDS011;40419;47.438;19.026;2024-02-23T05:00:48;3.05;;;1.90;;
54511;SDS011;40419;47.438;19.026;2024-02-23T05:03:16;3.30;;;1.73;;
54511;SDS011;40419;47.438;19.026;2024-02-23T05:05:43;4.07;;;1.52;;
54511;SDS011;40419;47.438;19.026;2024-02-23T05:08:11;2.03;;;1.38;;
54511;SDS011;40419;47.438;19.026;2024-02-23T05:10:36;3.95;;;1.80;;
54511;SDS011;40419;47.438;19.026;2024-02-23T05:13:02;2.63;;;1.48;;
54511;SDS011;40419;47.438;19.026;2024-02-23T05:15:27;2.50;;;1.45;;
54511;SDS011;40419;47.438;19.026;2024-02-23T05:17:53;2.33;;;1.40;;
54511;SDS011;40419;47.438;19.026;2024-02-23T05:20:20;2.67;;;1.20;;
54511;SDS011;40419;47.438;19.026;2024-02-23T05:22:51;3.15;;;1.42;;
54511;SDS011;40419;47.438;19.026;2024-02-23T05:25:16;2.97;;;1.20;;
54511;SDS011;40419;47.438;19.026;2024-02-23T05:27:44;7.13;;;1.40;;
54511;SDS011;40419;47.438;19.026;2024-02-23T05:30:13;3.15;;;1.27;;
54511;SDS011;40419;47.438;19.026;2024-02-23T05:32:44;1.85;;;1.33;;
54511;SDS011;40419;47.438;19.026;2024-02-23T05:35:09;2.97;;;1.40;;
54511;SDS011;40419;47.438;19.026;2024-02-23T05:37:37;2.08;;;1.27;;
54511;SDS011;40419;47.438;19.026;2024-02-23T05:40:05;0.98;;;0.75;;
54511;SDS011;40419;47.438;19.026;2024-02-23T05:42:40;2.53;;;1.33;;
54511;SDS011;40419;47.438;19.026;2024-02-23T05:45:08;5.55;;;1.35;;
54511;SDS011;40419;47.438;19.026;2024-02-23T05:47:39;2.33;;;1.30;;
54511;SDS011;40419;47.438;19.026;2024-02-23T05:50:05;3.38;;;1.40;;
54511;SDS011;40419;47.438;19.026;2024-02-23T05:52:36;3.75;;;1.20;;
54511;SDS011;40419;47.438;19.026;2024-02-23T05:55:07;2.03;;;1.30;;
54511;SDS011;40419;47.438;19.026;2024-02-23T05:57:35;1.90;;;1.13;;
54511;SDS011;40419;47.438;19.026;2024-02-23T06:00:03;1.75;;;1.10;;
54511;SDS011;40419;47.438;19.026;2024-02-23T06:02:37;1.40;;;1.00;;
54511;SDS011;40419;47.438;19.026;2024-02-23T06:05:02;2.58;;;1.50;;
54511;SDS011;40419;47.438;19.026;2024-02-23T06:07:29;2.47;;;1.10;;
54511;SDS011;40419;47.438;19.026;2024-02-23T06:09:59;1.95;;;1.40;;
54511;SDS011;40419;47.438;19.026;2024-02-23T06:12:25;1.10;;;0.98;;
54511;SDS011;40419;47.438;19.026;2024-02-23T06:14:52;4.35;;;1.45;;
54511;SDS011;40419;47.438;19.026;2024-02-23T06:17:19;3.45;;;1.30;;
54511;SDS011;40419;47.438;19.026;2024-02-23T06:19:51;1.90;;;1.10;;
54511;SDS011;40419;47.438;19.026;2024-02-23T06:22:20;2.25;;;1.10;;
54511;SDS011;40419;47.438;19.026;2024-02-23T06:24:52;2.80;;;1.50;;
54511;SDS011;40419;47.438;19.026;2024-02-23T06:27:17;3.08;;;1.67;;
54511;SDS011;40419;47.438;19.026;2024-02-23T06:29:43;1.65;;;1.15;;
54511;SDS011;40419;47.438;19.026;2024-02-23T06:32:11;2.45;;;1.42;;
54511;SDS011;40419;47.438;19.026;2024-02-23T06:34:38;3.30;;;1.45;;
54511;SDS011;40419;47.438;19.026;2024-02-23T06:37:04;2.80;;;1.58;;
54511;SDS011;40419;47.438;19.026;2024-02-23T06:39:29;2.22;;;1.17;;
54511;SDS011;40419;47.438;19.026;2024-02-23T06:41:55;2.35;;;1.55;;
54511;SDS011;40419;47.438;19.026;2024-02-23T06:44:25;5.43;;;1.48;;
54511;SDS011;40419;47.438;19.026;2024-02-23T06:46:53;3.45;;;1.85;;
54511;SDS011;40419;47.438;19.026;2024-02-23T06:49:18;3.30;;;1.80;;
54511;SDS011;40419;47.438;19.026;2024-02-23T06:51:44;3.35;;;1.60;;
54511;SDS011;40419;47.438;19.026;2024-02-23T06:54:09;3.08;;;1.92;;
54511;SDS011;40419;47.438;19.026;2024-02-23T06:56:34;2.53;;;1.50;;
54511;SDS011;40419;47.438;19.026;2024-02-23T06:59:02;3.55;;;1.88;;
54511;SDS011;40419;47.438;19.026;2024-02-23T07:01:29;4.75;;;2.17;;
54511;SDS011;40419;47.438;19.026;2024-02-23T07:03:58;2.42;;;1.75;;
54511;SDS011;40419;47.438;19.026;2024-02-23T07:06:26;4.95;;;2.55;;
54511;SDS011;40419;47.438;19.026;2024-02-23T07:08:53;2.80;;;1.92;;
54511;SDS011;40419;47.438;19.026;2024-02-23T07:11:22;4.93;;;2.75;;
54511;SDS011;40419;47.438;19.026;2024-02-23T07:13:47;3.47;;;2.58;;
54511;SDS011;40419;47.438;19.026;2024-02-23T07:16:16;3.13;;;1.90;;
54511;SDS011;40419;47.438;19.026;2024-02-23T07:18:43;5.57;;;3.00;;
54511;SDS011;40419;47.438;19.026;2024-02-23T07:21:11;6.70;;;2.55;;
54511;SDS011;40419;47.438;19.026;2024-02-23T07:23:37;5.00;;;2.95;;
54511;SDS011;40419;47.438;19.026;2024-02-23T07:26:04;8.13;;;2.40;;
54511;SDS011;40419;47.438;19.026;2024-02-23T07:28:30;3.20;;;2.28;;
54511;SDS011;40419;47.438;19.026;2024-02-23T07:30:55;10.30;;;2.33;;
54511;SDS011;40419;47.438;19.026;2024-02-23T07:33:20;4.45;;;2.42;;
54511;SDS011;40419;47.438;19.026;2024-02-23T07:35:48;4.68;;;2.28;;
54511;SDS011;40419;47.438;19.026;2024-02-23T07:38:13;4.47;;;2.28;;
54511;SDS011;40419;47.438;19.026;2024-02-23T07:40:43;3.83;;;2.35;;
54511;SDS011;40419;47.438;19.026;2024-02-23T07:43:10;3.35;;;2.25;;
54511;SDS011;40419;47.438;19.026;2024-02-23T07:45:36;4.95;;;2.72;;
54511;SDS011;40419;47.438;19.026;2024-02-23T07:48:04;4.80;;;2.47;;
54511;SDS011;40419;47.438;19.026;2024-02-23T07:50:29;2.95;;;1.90;;
54511;SDS011;40419;47.438;19.026;2024-02-23T07:52:55;5.70;;;2.35;;
54511;SDS011;40419;47.438;19.026;2024-02-23T07:55:20;4.85;;;2.67;;
54511;SDS011;40419;47.438;19.026;2024-02-23T07:57:48;3.85;;;2.67;;
54511;SDS011;40419;47.438;19.026;2024-02-23T08:00:16;4.15;;;2.47;;
54511;SDS011;40419;47.438;19.026;2024-02-23T08:02:45;4.47;;;2.65;;
54511;SDS011;40419;47.438;19.026;2024-02-23T08:05:10;3.67;;;2.40;;
54511;SDS011;40419;47.438;19.026;2024-02-23T08:07:35;4.22;;;2.22;;
54511;SDS011;40419;47.438;19.026;2024-02-23T08:10:01;3.17;;;2.10;;
54511;SDS011;40419;47.438;19.026;2024-02-23T08:12:28;3.00;;;1.80;;
54511;SDS011;40419;47.438;19.026;2024-02-23T08:14:57;5.70;;;2.40;;
54511;SDS011;40419;47.438;19.026;2024-02-23T08:17:25;3.85;;;2.60;;
54511;SDS011;40419;47.438;19.026;2024-02-23T08:19:51;7.72;;;2.50;;
54511;SDS011;40419;47.438;19.026;2024-02-23T08:22:18;3.53;;;2.10;;
54511;SDS011;40419;47.438;19.026;2024-02-23T08:24:44;5.75;;;2.35;;
54511;SDS011;40419;47.438;19.026;2024-02-23T08:27:09;4.47;;;2.45;;
54511;SDS011;40419;47.438;19.026;2024-02-23T08:29:37;3.58;;;2.38;;
54511;SDS011;40419;47.438;19.026;2024-02-23T08:32:07;5.00;;;2.83;;
54511;SDS011;40419;47.438;19.026;2024-02-23T08:34:33;7.68;;;2.80;;
54511;SDS011;40419;47.438;19.026;2024-02-23T08:37:03;3.88;;;2.50;;
54511;SDS011;40419;47.438;19.026;2024-02-23T08:39:31;7.20;;;3.20;;
54511;SDS011;40419;47.438;19.026;2024-02-23T08:42:01;5.50;;;2.88;;
54511;SDS011;40419;47.438;19.026;2024-02-23T08:44:29;6.28;;;2.67;;
54511;SDS011;40419;47.438;19.026;2024-02-23T08:46:54;5.28;;;2.97;;
54511;SDS011;40419;47.438;19.026;2024-02-23T08:49:23;4.72;;;2.83;;
54511;SDS011;40419;47.438;19.026;2024-02-23T08:51:48;5.93;;;3.08;;
54511;SDS011;40419;47.438;19.026;2024-02-23T08:54:13;3.63;;;2.15;;
54511;SDS011;40419;47.438;19.026;2024-02-23T08:56:39;5.28;;;3.10;;
54511;SDS011;40419;47.438;19.026;2024-02-23T08:59:04;4.75;;;3.13;;
54511;SDS011;40419;47.438;19.026;2024-02-23T09:01:32;6.03;;;3.28;;
54511;SDS011;40419;47.438;19.026;2024-02-23T09:03:57;5.53;;;3.42;;
54511;SDS011;40419;47.438;19.026;2024-02-23T09:06:25;6.15;;;3.38;;
54511;SDS011;40419;47.438;19.026;2024-02-23T09:08:53;15.70;;;2.90;;
54511;SDS011;40419;47.438;19.026;2024-02-23T09:11:18;7.18;;;3.13;;
54511;SDS011;40419;47.438;19.026;2024-02-23T09:13:44;5.93;;;3.40;;
54511;SDS011;40419;47.438;19.026;2024-02-23T09:16:13;5.53;;;3.15;;
54511;SDS011;40419;47.438;19.026;2024-02-23T09:18:44;5.93;;;3.63;;
54511;SDS011;40419;47.438;19.026;2024-02-23T09:21:14;5.47;;;3.47;;
54511;SDS011;40419;47.438;19.026;2024-02-23T09:23:39;4.68;;;2.72;;
54511;SDS011;40419;47.438;19.026;2024-02-23T09:26:09;5.60;;;2.90;;
54511;SDS011;40419;47.438;19.026;2024-02-23T09:28:38;5.53;;;3.42;;
54511;SDS011;40419;47.438;19.026;2024-02-23T09:31:11;8.38;;;3.25;;
54511;SDS011;40419;47.438;19.026;2024-02-23T09:33:36;6.13;;;3.22;;
54511;SDS011;40419;47.438;19.026;2024-02-23T09:36:02;5.22;;;3.10;;
54511;SDS011;40419;47.438;19.026;2024-02-23T09:38:30;6.57;;;3.55;;
54511;SDS011;40419;47.438;19.026;2024-02-23T09:40:59;5.88;;;3.72;;
54511;SDS011;40419;47.438;19.026;2024-02-23T09:43:26;5.63;;;3.05;;
54511;SDS011;40419;47.438;19.026;2024-02-23T09:45:53;5.03;;;2.92;;
54511;SDS011;40419;47.438;19.026;2024-02-23T09:48:21;7.22;;;3.90;;
54511;SDS011;40419;47.438;19.026;2024-02-23T09:50:47;7.97;;;4.05;;
54511;SDS011;40419;47.438;19.026;2024-02-23T09:53:15;8.10;;;4.13;;
54511;SDS011;40419;47.438;19.026;2024-02-23T09:55:42;6.82;;;4.15;;
54511;SDS011;40419;47.438;19.026;2024-02-23T09:58:08;10.23;;;4.50;;
54511;SDS011;40419;47.438;19.026;2024-02-23T10:00:34;7.22;;;3.95;;
54511;SDS011;40419;47.438;19.026;2024-02-23T10:03:01;9.82;;;4.13;;
54511;SDS011;40419;47.438;19.026;2024-02-23T10:05:29;7.68;;;3.90;;
54511;SDS011;40419;47.438;19.026;2024-02-23T10:07:55;6.80;;;3.30;;
54511;SDS011;40419;47.438;19.026;2024-02-23T10:10:32;13.20;;;4.78;;
54511;SDS011;40419;47.438;19.026;2024-02-23T10:13:00;6.22;;;3.50;;
54511;SDS011;40419;47.438;19.026;2024-02-23T10:15:28;5.93;;;3.28;;
54511;SDS011;40419;47.438;19.026;2024-02-23T10:17:59;6.65;;;3.53;;
54511;SDS011;40419;47.438;19.026;2024-02-23T10:20:24;4.85;;;3.03;;
54511;SDS011;40419;47.438;19.026;2024-02-23T10:22:49;5.28;;;3.40;;
54511;SDS011;40419;47.438;19.026;2024-02-23T10:25:17;5.97;;;2.78;;
54511;SDS011;40419;47.438;19.026;2024-02-23T10:27:45;5.55;;;2.85;;
54511;SDS011;40419;47.438;19.026;2024-02-23T10:30:14;6.80;;;3.15;;
54511;SDS011;40419;47.438;19.026;2024-02-23T10:32:42;6.25;;;3.17;;
54511;SDS011;40419;47.438;19.026;2024-02-23T10:35:13;4.60;;;2.88;;
54511;SDS011;40419;47.438;19.026;2024-02-23T10:37:39;6.93;;;4.05;;
54511;SDS011;40419;47.438;19.026;2024-02-23T10:40:05;6.95;;;3.58;;
54511;SDS011;40419;47.438;19.026;2024-02-23T10:42:34;5.75;;;3.20;;
54511;SDS011;40419;47.438;19.026;2024-02-23T10:45:01;4.80;;;3.22;;
54511;SDS011;40419;47.438;19.026;2024-02-23T10:47:30;6.25;;;3.65;;
54511;SDS011;40419;47.438;19.026;2024-02-23T10:49:59;4.97;;;3.40;;
54511;SDS011;40419;47.438;19.026;2024-02-23T10:52:27;7.28;;;3.50;;
54511;SDS011;40419;47.438;19.026;2024-02-23T10:54:55;5.65;;;2.97;;
54511;SDS011;40419;47.438;19.026;2024-02-23T10:57:21;4.80;;;2.83;;
54511;SDS011;40419;47.438;19.026;2024-02-23T10:59:48;4.63;;;2.70;;
54511;SDS011;40419;47.438;19.026;2024-02-23T11:02:20;6.45;;;2.58;;
54511;SDS011;40419;47.438;19.026;2024-02-23T11:04:49;3.72;;;2.65;;
54511;SDS011;40419;47.438;19.026;2024-02-23T11:07:16;4.20;;;2.28;;
54511;SDS011;40419;47.438;19.026;2024-02-23T11:09:41;4.55;;;2.72;;
54511;SDS011;40419;47.438;19.026;2024-02-23T11:12:12;4.22;;;2.55;;
54511;SDS011;40419;47.438;19.026;2024-02-23T11:14:49;3.83;;;2.60;;
54511;SDS011;40419;47.438;19.026;2024-02-23T11:17:18;5.40;;;1.98;;
54511;SDS011;40419;47.438;19.026;2024-02-23T11:19:45;3.30;;;1.75;;
54511;SDS011;40419;47.438;19.026;2024-02-23T11:22:10;4.63;;;2.30;;
54511;SDS011;40419;47.438;19.026;2024-02-23T11:24:42;2.90;;;1.52;;
54511;SDS011;40419;47.438;19.026;2024-02-23T11:27:13;3.88;;;1.88;;
54511;SDS011;40419;47.438;19.026;2024-02-23T11:29:38;5.10;;;1.70;;
54511;SDS011;40419;47.438;19.026;2024-02-23T11:32:12;3.22;;;1.55;;
54511;SDS011;40419;47.438;19.026;2024-02-23T11:34:37;4.38;;;2.17;;
54511;SDS011;40419;47.438;19.026;2024-02-23T11:37:10;4.35;;;1.98;;
54511;SDS011;40419;47.438;19.026;2024-02-23T11:39:39;2.55;;;1.77;;
54511;SDS011;40419;47.438;19.026;2024-02-23T11:42:05;2.30;;;1.65;;
54511;SDS011;40419;47.438;19.026;2024-02-23T11:44:30;4.85;;;2.08;;
54511;SDS011;40419;47.438;19.026;2024-02-23T11:46:56;3.22;;;2.05;;
54511;SDS011;40419;47.438;19.026;2024-02-23T11:49:27;3.30;;;1.65;;
54511;SDS011;40419;47.438;19.026;2024-02-23T11:51:53;3.80;;;1.83;;
54511;SDS011;40419;47.438;19.026;2024-02-23T11:54:18;11.02;;;1.88;;
54511;SDS011;40419;47.438;19.026;2024-02-23T11:56:43;3.03;;;1.50;;
54511;SDS011;40419;47.438;19.026;2024-02-23T11:59:09;4.88;;;1.90;;
54511;SDS011;40419;47.438;19.026;2024-02-23T12:01:37;3.38;;;1.85;;
54511;SDS011;40419;47.438;19.026;2024-02-23T12:04:08;3.15;;;1.67;;
54511;SDS011;40419;47.438;19.026;2024-02-23T12:06:33;3.85;;;1.92;;
54511;SDS011;40419;47.438;19.026;2024-02-23T12:09:01;3.17;;;1.75;;
54511;SDS011;40419;47.438;19.026;2024-02-23T12:11:29;4.68;;;2.53;;
54511;SDS011;40419;47.438;19.026;2024-02-23T12:13:57;3.13;;;1.83;;
54511;SDS011;40419;47.438;19.026;2024-02-23T12:16:22;4.13;;;2.35;;
54511;SDS011;40419;47.438;19.026;2024-02-23T12:18:54;9.82;;;4.32;;
54511;SDS011;40419;47.438;19.026;2024-02-23T12:21:20;6.50;;;3.65;;
54511;SDS011;40419;47.438;19.026;2024-02-23T12:23:49;3.95;;;1.92;;
54511;SDS011;40419;47.438;19.026;2024-02-23T12:26:15;3.38;;;2.22;;
54511;SDS011;40419;47.438;19.026;2024-02-23T12:28:43;6.72;;;2.22;;
54511;SDS011;40419;47.438;19.026;2024-02-23T12:31:09;6.32;;;2.63;;
54511;SDS011;40419;47.438;19.026;2024-02-23T12:33:35;3.30;;;2.40;;
54511;SDS011;40419;47.438;19.026;2024-02-23T12:36:03;4.72;;;2.67;;
54511;SDS011;40419;47.438;19.026;2024-02-23T12:38:29;4.93;;;3.33;;
54511;SDS011;40419;47.438;19.026;2024-02-23T12:40:55;6.57;;;3.45;;
54511;SDS011;40419;47.438;19.026;2024-02-23T12:43:22;4.65;;;2.72;;
54511;SDS011;40419;47.438;19.026;2024-02-23T12:45:54;5.40;;;3.25;;
54511;SDS011;40419;47.438;19.026;2024-02-23T12:48:24;8.45;;;3.13;;
54511;SDS011;40419;47.438;19.026;2024-02-23T12:50:50;6.57;;;3.88;;
54511;SDS011;40419;47.438;19.026;2024-02-23T12:53:34;5.95;;;3.60;;
54511;SDS011;40419;47.438;19.026;2024-02-23T12:58:33;10.98;;;3.80;;
54511;SDS011;40419;47.438;19.026;2024-02-23T13:00:59;9.18;;;4.07;;
54511;SDS011;40419;47.438;19.026;2024-02-23T13:03:27;7.72;;;4.03;;
54511;SDS011;40419;47.438;19.026;2024-02-23T13:05:56;8.05;;;4.55;;
54511;SDS011;40419;47.438;19.026;2024-02-23T13:08:21;9.15;;;4.10;;
54511;SDS011;40419;47.438;19.026;2024-02-23T13:10:47;7.53;;;4.43;;
54511;SDS011;40419;47.438;19.026;2024-02-23T13:13:13;10.95;;;5.50;;
54511;SDS011;40419;47.438;19.026;2024-02-23T13:15:44;7.72;;;4.75;;
54511;SDS011;40419;47.438;19.026;2024-02-23T13:18:09;9.27;;;5.10;;
54511;SDS011;40419;47.438;19.026;2024-02-23T13:20:35;10.20;;;5.40;;
54511;SDS011;40419;47.438;19.026;2024-02-23T13:23:03;9.68;;;5.45;;
54511;SDS011;40419;47.438;19.026;2024-02-23T13:25:33;8.90;;;5.28;;
54511;SDS011;40419;47.438;19.026;2024-02-23T13:27:58;7.78;;;5.00;;
54511;SDS011;40419;47.438;19.026;2024-02-23T13:30:24;10.30;;;4.97;;
54511;SDS011;40419;47.438;19.026;2024-02-23T13:32:49;9.63;;;4.85;;
54511;SDS011;40419;47.438;19.026;2024-02-23T13:35:14;8.70;;;4.57;;
54511;SDS011;40419;47.438;19.026;2024-02-23T13:37:42;10.82;;;4.72;;
54511;SDS011;40419;47.438;19.026;2024-02-23T13:40:08;7.22;;;4.97;;
54511;SDS011;40419;47.438;19.026;2024-02-23T13:42:34;9.07;;;5.00;;
54511;SDS011;40419;47.438;19.026;2024-02-23T13:44:59;10.38;;;4.50;;
54511;SDS011;40419;47.438;19.026;2024-02-23T13:47:25;6.10;;;3.90;;
54511;SDS011;40419;47.438;19.026;2024-02-23T13:49:50;11.27;;;4.50;;
54511;SDS011;40419;47.438;19.026;2024-02-23T13:52:18;9.63;;;5.15;;
54511;SDS011;40419;47.438;19.026;2024-02-23T13:54:45;15.50;;;4.90;;
54511;SDS011;40419;47.438;19.026;2024-02-23T13:57:11;10.55;;;5.53;;
54511;SDS011;40419;47.438;19.026;2024-02-23T13:59:36;9.80;;;4.80;;
54511;SDS011;40419;47.438;19.026;2024-02-23T14:02:04;12.70;;;5.50;;
54511;SDS011;40419;47.438;19.026;2024-02-23T14:04:29;11.50;;;5.10;;
54511;SDS011;40419;47.438;19.026;2024-02-23T14:06:55;9.77;;;5.78;;
54511;SDS011;40419;47.438;19.026;2024-02-23T14:09:21;11.38;;;5.50;;
54511;SDS011;40419;47.438;19.026;2024-02-23T14:11:46;12.77;;;5.70;;
54511;SDS011;40419;47.438;19.026;2024-02-23T14:14:14;7.53;;;4.43;;
54511;SDS011;40419;47.438;19.026;2024-02-23T14:16:40;11.95;;;5.15;;
54511;SDS011;40419;47.438;19.026;2024-02-23T14:19:07;8.38;;;4.97;;
54511;SDS011;40419;47.438;19.026;2024-02-23T14:21:33;13.70;;;6.38;;
54511;SDS011;40419;47.438;19.026;2024-02-23T14:24:02;12.38;;;6.18;;
54511;SDS011;40419;47.438;19.026;2024-02-23T14:26:29;12.68;;;7.00;;
54511;SDS011;40419;47.438;19.026;2024-02-23T14:28:57;14.50;;;6.55;;
54511;SDS011;40419;47.438;19.026;2024-02-23T14:31:25;11.55;;;6.13;;
54511;SDS011;40419;47.438;19.026;2024-02-23T14:33:51;10.95;;;5.68;;
54511;SDS011;40419;47.438;19.026;2024-02-23T14:36:17;11.38;;;6.47;;